sensor_id;sensor_type;location;lat;lon;timestamp;P1;durP1;ratioP1;P2;durP2;ratioP2
11187;SDS011;5650;52.700;7.306;2023-04-25T00:00:25;38.78;;;6.05;;
11187;SDS011;5650;52.700;7.306;2023-04-25T00:02:53;27.10;;;6.07;;
11187;SDS011;5650;52.700;7.306;2023-04-25T00:05:21;27.63;;;5.82;;
11187;SDS011;5650;52.700;7.306;2023-04-25T00:07:57;23.27;;;5.65;;
11187;SDS011;5650;52.700;7.306;2023-04-25T00:10:32;28.05;;;6.43;;
11187;SDS011;5650;52.700;7.306;2023-04-25T00:12:59;30.80;;;5.85;;
11187;SDS011;5650;52.700;7.306;2023-04-25T00:15:27;25.52;;;5.78;;
11187;SDS011;5650;52.700;7.306;2023-04-25T00:17:55;22.80;;;5.90;;
11187;SDS011;5650;52.700;7.306;2023-04-25T00:20:26;26.45;;;5.53;;
11187;SDS011;5650;52.700;7.306;2023-04-25T00:22:53;26.45;;;5.57;;
11187;SDS011;5650;52.700;7.306;2023-04-25T00:25:20;20.35;;;5.20;;
11187;SDS011;5650;52.700;7.306;2023-04-25T00:27:48;32.95;;;6.20;;
11187;SDS011;5650;52.700;7.306;2023-04-25T00:30:18;24.25;;;5.80;;
11187;SDS011;5650;52.700;7.306;2023-04-25T00:32:45;20.95;;;5.47;;
11187;SDS011;5650;52.700;7.306;2023-04-25T00:35:13;29.42;;;6.05;;
11187;SDS011;5650;52.700;7.306;2023-04-25T00:37:40;26.23;;;5.70;;
11187;SDS011;5650;52.700;7.306;2023-04-25T00:40:08;25.35;;;5.78;;
11187;SDS011;5650;52.700;7.306;2023-04-25T00:42:36;24.08;;;5.60;;
11187;SDS011;5650;52.700;7.306;2023-04-25T00:45:12;26.08;;;6.25;;
11187;SDS011;5650;52.700;7.306;2023-04-25T00:47:40;27.52;;;6.18;;
11187;SDS011;5650;52.700;7.306;2023-04-25T00:50:16;20.25;;;5.43;;
11187;SDS011;5650;52.700;7.306;2023-04-25T00:52:43;26.73;;;5.38;;
11187;SDS011;5650;52.700;7.306;2023-04-25T00:55:13;22.27;;;4.80;;
11187;SDS011;5650;52.700;7.306;2023-04-25T00:57:40;24.65;;;4.55;;
11187;SDS011;5650;52.700;7.306;2023-04-25T01:00:09;26.67;;;5.93;;
11187;SDS011;5650;52.700;7.306;2023-04-25T01:02:39;25.10;;;5.43;;
11187;SDS011;5650;52.700;7.306;2023-04-25T01:05:07;26.83;;;5.30;;
11187;SDS011;5650;52.700;7.306;2023-04-25T01:07:34;23.33;;;4.80;;
11187;SDS011;5650;52.700;7.306;2023-04-25T01:10:08;26.30;;;4.50;;
11187;SDS011;5650;52.700;7.306;2023-04-25T01:12:35;16.60;;;4.78;;
11187;SDS011;5650;52.700;7.306;2023-04-25T01:15:06;20.67;;;5.18;;
11187;SDS011;5650;52.700;7.306;2023-04-25T01:17:35;22.15;;;5.35;;
11187;SDS011;5650;52.700;7.306;2023-04-25T01:20:06;27.20;;;5.20;;
11187;SDS011;5650;52.700;7.306;2023-04-25T01:22:36;25.63;;;5.40;;
11187;SDS011;5650;52.700;7.306;2023-04-25T01:25:03;23.88;;;6.53;;
11187;SDS011;5650;52.700;7.306;2023-04-25T01:27:34;20.83;;;5.55;;
11187;SDS011;5650;52.700;7.306;2023-04-25T01:30:02;20.98;;;5.28;;
11187;SDS011;5650;52.700;7.306;2023-04-25T01:32:31;16.55;;;4.80;;
11187;SDS011;5650;52.700;7.306;2023-04-25T01:35:03;23.80;;;5.50;;
11187;SDS011;5650;52.700;7.306;2023-04-25T01:37:45;19.23;;;4.38;;
11187;SDS011;5650;52.700;7.306;2023-04-25T01:40:17;22.33;;;5.07;;
11187;SDS011;5650;52.700;7.306;2023-04-25T01:42:45;21.50;;;4.57;;
11187;SDS011;5650;52.700;7.306;2023-04-25T01:45:15;24.05;;;4.85;;
11187;SDS011;5650;52.700;7.306;2023-04-25T01:47:46;18.92;;;5.28;;
11187;SDS011;5650;52.700;7.306;2023-04-25T01:50:15;23.15;;;4.97;;
11187;SDS011;5650;52.700;7.306;2023-04-25T01:52:43;20.60;;;5.18;;
11187;SDS011;5650;52.700;7.306;2023-04-25T01:55:12;16.27;;;5.22;;
11187;SDS011;5650;52.700;7.306;2023-04-25T01:57:42;15.27;;;4.50;;
11187;SDS011;5650;52.700;7.306;2023-04-25T02:00:09;31.65;;;5.85;;
11187;SDS011;5650;52.700;7.306;2023-04-25T02:02:43;19.70;;;5.57;;
11187;SDS011;5650;52.700;7.306;2023-04-25T02:05:15;25.50;;;6.28;;
11187;SDS011;5650;52.700;7.306;2023-04-25T02:07:50;19.63;;;5.38;;
11187;SDS011;5650;52.700;7.306;2023-04-25T02:10:18;22.05;;;4.82;;
11187;SDS011;5650;52.700;7.306;2023-04-25T02:12:45;22.52;;;5.75;;
11187;SDS011;5650;52.700;7.306;2023-04-25T02:15:15;25.83;;;5.63;;
11187;SDS011;5650;52.700;7.306;2023-04-25T02:17:42;22.55;;;5.15;;
11187;SDS011;5650;52.700;7.306;2023-04-25T02:20:10;23.35;;;4.65;;
11187;SDS011;5650;52.700;7.306;2023-04-25T02:22:37;32.90;;;5.88;;
11187;SDS011;5650;52.700;7.306;2023-04-25T02:25:07;20.33;;;4.85;;
11187;SDS011;5650;52.700;7.306;2023-04-25T02:27:37;24.50;;;5.82;;
11187;SDS011;5650;52.700;7.306;2023-04-25T02:30:05;25.25;;;5.45;;
11187;SDS011;5650;52.700;7.306;2023-04-25T02:32:33;19.15;;;5.35;;
11187;SDS011;5650;52.700;7.306;2023-04-25T02:35:03;32.65;;;7.05;;
11187;SDS011;5650;52.700;7.306;2023-04-25T02:37:33;22.27;;;5.18;;
11187;SDS011;5650;52.700;7.306;2023-04-25T02:40:11;26.15;;;5.25;;
11187;SDS011;5650;52.700;7.306;2023-04-25T02:42:38;23.30;;;5.38;;
11187;SDS011;5650;52.700;7.306;2023-04-25T02:45:06;21.13;;;5.00;;
11187;SDS011;5650;52.700;7.306;2023-04-25T02:47:34;22.08;;;5.07;;
11187;SDS011;5650;52.700;7.306;2023-04-25T02:50:01;21.17;;;4.95;;
11187;SDS011;5650;52.700;7.306;2023-04-25T02:52:29;23.98;;;5.32;;
11187;SDS011;5650;52.700;7.306;2023-04-25T02:54:56;23.85;;;4.82;;
11187;SDS011;5650;52.700;7.306;2023-04-25T02:57:25;23.95;;;5.30;;
11187;SDS011;5650;52.700;7.306;2023-04-25T02:59:52;17.65;;;4.88;;
11187;SDS011;5650;52.700;7.306;2023-04-25T03:02:22;22.20;;;5.35;;
11187;SDS011;5650;52.700;7.306;2023-04-25T03:04:49;24.40;;;5.47;;
11187;SDS011;5650;52.700;7.306;2023-04-25T03:07:16;17.58;;;4.57;;
11187;SDS011;5650;52.700;7.306;2023-04-25T03:09:47;20.80;;;5.13;;
11187;SDS011;5650;52.700;7.306;2023-04-25T03:12:14;22.35;;;4.97;;
11187;SDS011;5650;52.700;7.306;2023-04-25T03:14:43;21.75;;;6.03;;
11187;SDS011;5650;52.700;7.306;2023-04-25T03:17:13;25.13;;;5.20;;
11187;SDS011;5650;52.700;7.306;2023-04-25T03:19:43;24.13;;;4.75;;
11187;SDS011;5650;52.700;7.306;2023-04-25T03:22:11;22.50;;;5.25;;
11187;SDS011;5650;52.700;7.306;2023-04-25T03:24:38;16.50;;;4.68;;
11187;SDS011;5650;52.700;7.306;2023-04-25T03:27:07;24.92;;;5.00;;
11187;SDS011;5650;52.700;7.306;2023-04-25T03:29:34;28.58;;;5.07;;
11187;SDS011;5650;52.700;7.306;2023-04-25T03:32:06;18.10;;;4.93;;
11187;SDS011;5650;52.700;7.306;2023-04-25T03:34:39;32.78;;;6.00;;
11187;SDS011;5650;52.700;7.306;2023-04-25T03:37:12;19.35;;;4.80;;
11187;SDS011;5650;52.700;7.306;2023-04-25T03:39:43;23.67;;;5.85;;
11187;SDS011;5650;52.700;7.306;2023-04-25T03:42:10;29.15;;;5.35;;
11187;SDS011;5650;52.700;7.306;2023-04-25T03:44:37;26.40;;;5.50;;
11187;SDS011;5650;52.700;7.306;2023-04-25T03:47:05;15.18;;;3.95;;
11187;SDS011;5650;52.700;7.306;2023-04-25T03:49:33;22.08;;;5.20;;
11187;SDS011;5650;52.700;7.306;2023-04-25T03:52:12;20.48;;;4.78;;
11187;SDS011;5650;52.700;7.306;2023-04-25T03:54:39;19.48;;;5.15;;
11187;SDS011;5650;52.700;7.306;2023-04-25T03:57:10;18.98;;;5.22;;
11187;SDS011;5650;52.700;7.306;2023-04-25T03:59:40;18.55;;;4.30;;
11187;SDS011;5650;52.700;7.306;2023-04-25T04:02:12;25.77;;;5.10;;
11187;SDS011;5650;52.700;7.306;2023-04-25T04:04:39;18.33;;;4.82;;
11187;SDS011;5650;52.700;7.306;2023-04-25T04:07:06;22.05;;;5.20;;
11187;SDS011;5650;52.700;7.306;2023-04-25T04:09:36;18.45;;;5.07;;
11187;SDS011;5650;52.700;7.306;2023-04-25T04:12:06;26.15;;;4.55;;
11187;SDS011;5650;52.700;7.306;2023-04-25T04:14:33;22.50;;;4.60;;
11187;SDS011;5650;52.700;7.306;2023-04-25T04:17:01;22.45;;;4.68;;
11187;SDS011;5650;52.700;7.306;2023-04-25T04:19:29;15.50;;;4.32;;
11187;SDS011;5650;52.700;7.306;2023-04-25T04:21:56;20.98;;;4.40;;
11187;SDS011;5650;52.700;7.306;2023-04-25T04:24:23;25.98;;;4.28;;
11187;SDS011;5650;52.700;7.306;2023-04-25T04:26:51;15.75;;;4.30;;
11187;SDS011;5650;52.700;7.306;2023-04-25T04:29:18;19.58;;;5.13;;
11187;SDS011;5650;52.700;7.306;2023-04-25T04:31:47;24.02;;;5.05;;
11187;SDS011;5650;52.700;7.306;2023-04-25T04:34:16;19.90;;;4.38;;
11187;SDS011;5650;52.700;7.306;2023-04-25T04:36:45;21.10;;;3.67;;
11187;SDS011;5650;52.700;7.306;2023-04-25T04:39:13;22.33;;;4.40;;
11187;SDS011;5650;52.700;7.306;2023-04-25T04:41:40;34.75;;;4.75;;
11187;SDS011;5650;52.700;7.306;2023-04-25T04:44:07;22.98;;;4.45;;
11187;SDS011;5650;52.700;7.306;2023-04-25T04:46:35;21.48;;;4.18;;
11187;SDS011;5650;52.700;7.306;2023-04-25T04:49:07;18.85;;;4.22;;
11187;SDS011;5650;52.700;7.306;2023-04-25T04:51:34;25.33;;;4.95;;
11187;SDS011;5650;52.700;7.306;2023-04-25T04:54:03;22.98;;;4.82;;
11187;SDS011;5650;52.700;7.306;2023-04-25T04:56:30;18.33;;;4.35;;
11187;SDS011;5650;52.700;7.306;2023-04-25T04:58:58;24.40;;;4.50;;
11187;SDS011;5650;52.700;7.306;2023-04-25T05:01:26;19.30;;;4.20;;
11187;SDS011;5650;52.700;7.306;2023-04-25T05:03:54;21.27;;;4.50;;
11187;SDS011;5650;52.700;7.306;2023-04-25T05:06:25;17.98;;;4.30;;
11187;SDS011;5650;52.700;7.306;2023-04-25T05:08:53;18.48;;;3.90;;
11187;SDS011;5650;52.700;7.306;2023-04-25T05:11:22;20.08;;;5.10;;
11187;SDS011;5650;52.700;7.306;2023-04-25T05:13:51;18.40;;;4.35;;
11187;SDS011;5650;52.700;7.306;2023-04-25T05:16:19;24.42;;;4.47;;
11187;SDS011;5650;52.700;7.306;2023-04-25T05:18:48;18.33;;;4.60;;
11187;SDS011;5650;52.700;7.306;2023-04-25T05:21:15;21.55;;;4.47;;
11187;SDS011;5650;52.700;7.306;2023-04-25T05:23:42;18.13;;;3.90;;
11187;SDS011;5650;52.700;7.306;2023-04-25T05:26:09;15.65;;;3.45;;
11187;SDS011;5650;52.700;7.306;2023-04-25T05:28:46;16.83;;;3.70;;
11187;SDS011;5650;52.700;7.306;2023-04-25T05:31:13;15.45;;;3.85;;
11187;SDS011;5650;52.700;7.306;2023-04-25T05:33:43;24.75;;;4.32;;
11187;SDS011;5650;52.700;7.306;2023-04-25T05:36:13;20.50;;;3.90;;
11187;SDS011;5650;52.700;7.306;2023-04-25T05:38:41;10.95;;;3.38;;
11187;SDS011;5650;52.700;7.306;2023-04-25T05:41:08;17.23;;;4.15;;
11187;SDS011;5650;52.700;7.306;2023-04-25T05:43:38;11.80;;;3.47;;
11187;SDS011;5650;52.700;7.306;2023-04-25T05:46:11;17.25;;;3.67;;
11187;SDS011;5650;52.700;7.306;2023-04-25T05:48:38;14.77;;;3.20;;
11187;SDS011;5650;52.700;7.306;2023-04-25T05:51:06;10.25;;;2.95;;
11187;SDS011;5650;52.700;7.306;2023-04-25T05:53:33;7.93;;;2.92;;
11187;SDS011;5650;52.700;7.306;2023-04-25T05:56:01;11.55;;;3.58;;
11187;SDS011;5650;52.700;7.306;2023-04-25T05:58:40;9.38;;;2.92;;
11187;SDS011;5650;52.700;7.306;2023-04-25T06:01:07;9.27;;;2.75;;
11187;SDS011;5650;52.700;7.306;2023-04-25T06:03:42;14.75;;;2.90;;
11187;SDS011;5650;52.700;7.306;2023-04-25T06:06:09;7.07;;;2.05;;
11187;SDS011;5650;52.700;7.306;2023-04-25T06:08:42;7.30;;;2.17;;
11187;SDS011;5650;52.700;7.306;2023-04-25T06:11:12;7.88;;;2.53;;
11187;SDS011;5650;52.700;7.306;2023-04-25T06:13:45;11.80;;;2.50;;
11187;SDS011;5650;52.700;7.306;2023-04-25T06:16:12;9.52;;;2.50;;
11187;SDS011;5650;52.700;7.306;2023-04-25T06:18:44;8.77;;;2.13;;
11187;SDS011;5650;52.700;7.306;2023-04-25T06:21:14;10.70;;;2.67;;
11187;SDS011;5650;52.700;7.306;2023-04-25T06:23:44;9.70;;;2.33;;
11187;SDS011;5650;52.700;7.306;2023-04-25T06:26:11;11.55;;;2.60;;
11187;SDS011;5650;52.700;7.306;2023-04-25T06:28:39;11.82;;;2.38;;
11187;SDS011;5650;52.700;7.306;2023-04-25T06:31:06;6.20;;;2.05;;
11187;SDS011;5650;52.700;7.306;2023-04-25T06:33:35;10.68;;;2.45;;
11187;SDS011;5650;52.700;7.306;2023-04-25T06:36:02;6.07;;;2.22;;
11187;SDS011;5650;52.700;7.306;2023-04-25T06:38:30;6.55;;;2.08;;
11187;SDS011;5650;52.700;7.306;2023-04-25T06:40:57;12.45;;;3.05;;
11187;SDS011;5650;52.700;7.306;2023-04-25T06:43:27;10.40;;;2.92;;
11187;SDS011;5650;52.700;7.306;2023-04-25T06:46:08;11.68;;;3.13;;
11187;SDS011;5650;52.700;7.306;2023-04-25T06:48:36;12.77;;;3.03;;
11187;SDS011;5650;52.700;7.306;2023-04-25T06:51:04;11.48;;;2.20;;
11187;SDS011;5650;52.700;7.306;2023-04-25T06:53:34;13.45;;;3.05;;
11187;SDS011;5650;52.700;7.306;2023-04-25T06:56:01;12.35;;;3.42;;
11187;SDS011;5650;52.700;7.306;2023-04-25T06:58:31;12.57;;;2.38;;
11187;SDS011;5650;52.700;7.306;2023-04-25T07:00:58;8.93;;;2.63;;
11187;SDS011;5650;52.700;7.306;2023-04-25T07:03:28;9.05;;;2.53;;
11187;SDS011;5650;52.700;7.306;2023-04-25T07:06:02;10.32;;;3.05;;
11187;SDS011;5650;52.700;7.306;2023-04-25T07:08:36;5.80;;;2.47;;
11187;SDS011;5650;52.700;7.306;2023-04-25T07:11:06;9.02;;;2.38;;
11187;SDS011;5650;52.700;7.306;2023-04-25T07:13:33;8.55;;;2.63;;
11187;SDS011;5650;52.700;7.306;2023-04-25T07:16:03;11.65;;;2.88;;
11187;SDS011;5650;52.700;7.306;2023-04-25T07:18:31;10.15;;;2.15;;
11187;SDS011;5650;52.700;7.306;2023-04-25T07:20:58;7.25;;;2.45;;
11187;SDS011;5650;52.700;7.306;2023-04-25T07:23:32;7.50;;;2.60;;
11187;SDS011;5650;52.700;7.306;2023-04-25T07:25:59;9.35;;;2.63;;
11187;SDS011;5650;52.700;7.306;2023-04-25T07:28:34;6.20;;;2.17;;
11187;SDS011;5650;52.700;7.306;2023-04-25T07:31:01;13.13;;;3.10;;
11187;SDS011;5650;52.700;7.306;2023-04-25T07:33:34;11.30;;;2.70;;
11187;SDS011;5650;52.700;7.306;2023-04-25T07:36:08;12.13;;;2.75;;
11187;SDS011;5650;52.700;7.306;2023-04-25T07:38:36;10.85;;;2.58;;
11187;SDS011;5650;52.700;7.306;2023-04-25T07:41:04;11.15;;;2.47;;
11187;SDS011;5650;52.700;7.306;2023-04-25T07:43:31;10.38;;;2.58;;
11187;SDS011;5650;52.700;7.306;2023-04-25T07:45:58;10.57;;;2.72;;
11187;SDS011;5650;52.700;7.306;2023-04-25T07:48:31;11.23;;;2.40;;
11187;SDS011;5650;52.700;7.306;2023-04-25T07:50:59;8.35;;;2.40;;
11187;SDS011;5650;52.700;7.306;2023-04-25T07:53:26;11.93;;;2.67;;
11187;SDS011;5650;52.700;7.306;2023-04-25T07:55:58;9.00;;;2.45;;
11187;SDS011;5650;52.700;7.306;2023-04-25T07:58:34;10.32;;;2.17;;
11187;SDS011;5650;52.700;7.306;2023-04-25T08:01:07;10.95;;;2.25;;
11187;SDS011;5650;52.700;7.306;2023-04-25T08:03:34;9.38;;;2.03;;
11187;SDS011;5650;52.700;7.306;2023-04-25T08:06:01;8.55;;;2.30;;
11187;SDS011;5650;52.700;7.306;2023-04-25T08:08:31;8.73;;;2.22;;
11187;SDS011;5650;52.700;7.306;2023-04-25T08:11:03;10.10;;;2.25;;
11187;SDS011;5650;52.700;7.306;2023-04-25T08:13:30;9.27;;;2.35;;
11187;SDS011;5650;52.700;7.306;2023-04-25T08:15:58;7.90;;;2.25;;
11187;SDS011;5650;52.700;7.306;2023-04-25T08:18:28;8.73;;;2.28;;
11187;SDS011;5650;52.700;7.306;2023-04-25T08:20:55;10.77;;;2.35;;
11187;SDS011;5650;52.700;7.306;2023-04-25T08:23:25;11.52;;;2.40;;
11187;SDS011;5650;52.700;7.306;2023-04-25T08:25:59;8.95;;;2.03;;
11187;SDS011;5650;52.700;7.306;2023-04-25T08:28:27;5.88;;;1.80;;
11187;SDS011;5650;52.700;7.306;2023-04-25T08:30:58;5.93;;;1.90;;
11187;SDS011;5650;52.700;7.306;2023-04-25T08:33:31;6.45;;;1.90;;
11187;SDS011;5650;52.700;7.306;2023-04-25T08:36:04;9.90;;;2.42;;
11187;SDS011;5650;52.700;7.306;2023-04-25T08:38:32;8.35;;;2.30;;
11187;SDS011;5650;52.700;7.306;2023-04-25T08:41:05;6.47;;;2.10;;
11187;SDS011;5650;52.700;7.306;2023-04-25T08:43:43;9.40;;;2.30;;
11187;SDS011;5650;52.700;7.306;2023-04-25T08:46:14;10.05;;;2.53;;
11187;SDS011;5650;52.700;7.306;2023-04-25T08:48:44;8.95;;;2.13;;
11187;SDS011;5650;52.700;7.306;2023-04-25T08:51:17;7.03;;;1.85;;
11187;SDS011;5650;52.700;7.306;2023-04-25T08:53:50;7.10;;;2.00;;
11187;SDS011;5650;52.700;7.306;2023-04-25T08:56:18;11.13;;;2.70;;
11187;SDS011;5650;52.700;7.306;2023-04-25T08:58:49;6.25;;;1.65;;
11187;SDS011;5650;52.700;7.306;2023-04-25T09:01:17;6.40;;;1.65;;
11187;SDS011;5650;52.700;7.306;2023-04-25T09:03:44;12.57;;;2.30;;
11187;SDS011;5650;52.700;7.306;2023-04-25T09:06:22;10.45;;;2.30;;
11187;SDS011;5650;52.700;7.306;2023-04-25T09:09:01;7.88;;;2.15;;
11187;SDS011;5650;52.700;7.306;2023-04-25T09:11:33;6.50;;;2.33;;
11187;SDS011;5650;52.700;7.306;2023-04-25T09:14:13;11.82;;;2.60;;
11187;SDS011;5650;52.700;7.306;2023-04-25T09:16:57;8.18;;;2.33;;
11187;SDS011;5650;52.700;7.306;2023-04-25T09:19:26;8.32;;;1.85;;
11187;SDS011;5650;52.700;7.306;2023-04-25T09:21:56;12.55;;;2.40;;
11187;SDS011;5650;52.700;7.306;2023-04-25T09:24:33;9.00;;;2.22;;
11187;SDS011;5650;52.700;7.306;2023-04-25T09:27:05;6.65;;;1.80;;
11187;SDS011;5650;52.700;7.306;2023-04-25T09:29:35;6.68;;;1.73;;
11187;SDS011;5650;52.700;7.306;2023-04-25T09:32:17;7.07;;;2.08;;
11187;SDS011;5650;52.700;7.306;2023-04-25T09:34:47;6.25;;;1.77;;
11187;SDS011;5650;52.700;7.306;2023-04-25T09:37:19;5.18;;;1.42;;
11187;SDS011;5650;52.700;7.306;2023-04-25T09:39:47;5.63;;;1.60;;
11187;SDS011;5650;52.700;7.306;2023-04-25T09:42:15;8.35;;;2.00;;
11187;SDS011;5650;52.700;7.306;2023-04-25T09:44:51;6.45;;;1.80;;
11187;SDS011;5650;52.700;7.306;2023-04-25T09:47:19;8.70;;;2.08;;
11187;SDS011;5650;52.700;7.306;2023-04-25T09:49:51;6.75;;;1.65;;
11187;SDS011;5650;52.700;7.306;2023-04-25T09:52:20;7.35;;;1.52;;
11187;SDS011;5650;52.700;7.306;2023-04-25T09:54:51;5.50;;;1.58;;
11187;SDS011;5650;52.700;7.306;2023-04-25T09:57:19;8.32;;;1.73;;
11187;SDS011;5650;52.700;7.306;2023-04-25T09:59:51;7.78;;;1.63;;
11187;SDS011;5650;52.700;7.306;2023-04-25T10:02:20;5.70;;;1.95;;
11187;SDS011;5650;52.700;7.306;2023-04-25T10:04:49;9.65;;;1.90;;
11187;SDS011;5650;52.700;7.306;2023-04-25T10:07:29;11.43;;;2.58;;
11187;SDS011;5650;52.700;7.306;2023-04-25T10:10:04;6.15;;;1.55;;
11187;SDS011;5650;52.700;7.306;2023-04-25T10:12:32;6.90;;;1.90;;
11187;SDS011;5650;52.700;7.306;2023-04-25T10:15:01;11.82;;;2.65;;
11187;SDS011;5650;52.700;7.306;2023-04-25T10:17:30;5.20;;;1.67;;
11187;SDS011;5650;52.700;7.306;2023-04-25T10:20:02;10.15;;;2.90;;
11187;SDS011;5650;52.700;7.306;2023-04-25T10:22:31;7.63;;;2.80;;
11187;SDS011;5650;52.700;7.306;2023-04-25T10:25:05;10.65;;;4.00;;
11187;SDS011;5650;52.700;7.306;2023-04-25T10:27:34;5.68;;;2.35;;
11187;SDS011;5650;52.700;7.306;2023-04-25T10:30:07;6.00;;;1.48;;
11187;SDS011;5650;52.700;7.306;2023-04-25T10:32:37;4.90;;;1.73;;
11187;SDS011;5650;52.700;7.306;2023-04-25T10:35:12;6.07;;;1.55;;
11187;SDS011;5650;52.700;7.306;2023-04-25T10:37:58;8.65;;;2.10;;
11187;SDS011;5650;52.700;7.306;2023-04-25T10:40:26;6.10;;;1.55;;
11187;SDS011;5650;52.700;7.306;2023-04-25T10:42:54;5.18;;;1.52;;
11187;SDS011;5650;52.700;7.306;2023-04-25T10:45:52;3.65;;;1.50;;
11187;SDS011;5650;52.700;7.306;2023-04-25T10:48:29;6.15;;;2.13;;
11187;SDS011;5650;52.700;7.306;2023-04-25T10:51:06;3.53;;;1.27;;
11187;SDS011;5650;52.700;7.306;2023-04-25T10:53:37;8.23;;;1.67;;
11187;SDS011;5650;52.700;7.306;2023-04-25T10:56:09;5.15;;;1.33;;
11187;SDS011;5650;52.700;7.306;2023-04-25T10:58:41;2.90;;;1.38;;
11187;SDS011;5650;52.700;7.306;2023-04-25T11:01:13;6.30;;;1.67;;
11187;SDS011;5650;52.700;7.306;2023-04-25T11:03:41;3.00;;;1.30;;
11187;SDS011;5650;52.700;7.306;2023-04-25T11:06:12;7.78;;;1.63;;
11187;SDS011;5650;52.700;7.306;2023-04-25T11:08:54;3.72;;;1.25;;
11187;SDS011;5650;52.700;7.306;2023-04-25T11:11:22;6.22;;;1.73;;
11187;SDS011;5650;52.700;7.306;2023-04-25T11:13:49;3.58;;;1.35;;
11187;SDS011;5650;52.700;7.306;2023-04-25T11:16:18;5.05;;;1.58;;
11187;SDS011;5650;52.700;7.306;2023-04-25T11:18:45;7.00;;;1.42;;
11187;SDS011;5650;52.700;7.306;2023-04-25T11:21:15;8.13;;;1.38;;
11187;SDS011;5650;52.700;7.306;2023-04-25T11:23:44;3.30;;;1.20;;
11187;SDS011;5650;52.700;7.306;2023-04-25T11:26:12;4.97;;;1.25;;
11187;SDS011;5650;52.700;7.306;2023-04-25T11:28:44;4.38;;;1.10;;
11187;SDS011;5650;52.700;7.306;2023-04-25T11:31:12;5.45;;;1.60;;
11187;SDS011;5650;52.700;7.306;2023-04-25T11:33:40;6.38;;;1.50;;
11187;SDS011;5650;52.700;7.306;2023-04-25T11:36:12;6.50;;;1.48;;
11187;SDS011;5650;52.700;7.306;2023-04-25T11:38:40;5.57;;;1.45;;
11187;SDS011;5650;52.700;7.306;2023-04-25T11:41:07;3.42;;;1.25;;
11187;SDS011;5650;52.700;7.306;2023-04-25T11:43:34;3.13;;;1.13;;
11187;SDS011;5650;52.700;7.306;2023-04-25T11:46:06;5.03;;;1.20;;
11187;SDS011;5650;52.700;7.306;2023-04-25T11:48:36;4.35;;;1.17;;
11187;SDS011;5650;52.700;7.306;2023-04-25T11:51:06;5.55;;;1.67;;
11187;SDS011;5650;52.700;7.306;2023-04-25T11:53:40;4.50;;;1.30;;
11187;SDS011;5650;52.700;7.306;2023-04-25T11:56:11;3.53;;;1.27;;
11187;SDS011;5650;52.700;7.306;2023-04-25T12:01:28;7.60;;;1.75;;
11187;SDS011;5650;52.700;7.306;2023-04-25T12:04:09;5.38;;;1.73;;
11187;SDS011;5650;52.700;7.306;2023-04-25T12:06:42;5.85;;;1.77;;
11187;SDS011;5650;52.700;7.306;2023-04-25T12:09:11;9.25;;;1.92;;
11187;SDS011;5650;52.700;7.306;2023-04-25T12:11:46;4.40;;;1.58;;
11187;SDS011;5650;52.700;7.306;2023-04-25T12:14:20;6.88;;;2.13;;
11187;SDS011;5650;52.700;7.306;2023-04-25T12:16:49;10.70;;;2.38;;
11187;SDS011;5650;52.700;7.306;2023-04-25T12:19:20;6.00;;;1.85;;
11187;SDS011;5650;52.700;7.306;2023-04-25T12:21:49;7.57;;;2.15;;
11187;SDS011;5650;52.700;7.306;2023-04-25T12:24:17;6.82;;;2.00;;
11187;SDS011;5650;52.700;7.306;2023-04-25T12:27:01;7.32;;;2.53;;
11187;SDS011;5650;52.700;7.306;2023-04-25T12:29:32;8.95;;;2.38;;
11187;SDS011;5650;52.700;7.306;2023-04-25T12:32:03;7.47;;;2.05;;
11187;SDS011;5650;52.700;7.306;2023-04-25T12:34:31;8.77;;;2.28;;
11187;SDS011;5650;52.700;7.306;2023-04-25T12:37:08;8.15;;;2.45;;
11187;SDS011;5650;52.700;7.306;2023-04-25T12:39:35;10.98;;;2.63;;
11187;SDS011;5650;52.700;7.306;2023-04-25T12:42:05;7.75;;;2.20;;
11187;SDS011;5650;52.700;7.306;2023-04-25T12:44:36;6.65;;;2.83;;
11187;SDS011;5650;52.700;7.306;2023-04-25T12:47:11;16.08;;;5.70;;
11187;SDS011;5650;52.700;7.306;2023-04-25T12:49:44;11.88;;;4.78;;
11187;SDS011;5650;52.700;7.306;2023-04-25T12:52:15;8.15;;;3.30;;
11187;SDS011;5650;52.700;7.306;2023-04-25T12:54:42;11.63;;;4.13;;
11187;SDS011;5650;52.700;7.306;2023-04-25T12:57:12;10.57;;;2.80;;
11187;SDS011;5650;52.700;7.306;2023-04-25T12:59:42;10.45;;;2.33;;
11187;SDS011;5650;52.700;7.306;2023-04-25T13:02:15;6.20;;;1.95;;
11187;SDS011;5650;52.700;7.306;2023-04-25T13:04:42;7.55;;;2.08;;
11187;SDS011;5650;52.700;7.306;2023-04-25T13:07:14;5.72;;;2.03;;
11187;SDS011;5650;52.700;7.306;2023-04-25T13:09:44;6.35;;;1.85;;
11187;SDS011;5650;52.700;7.306;2023-04-25T13:12:14;6.95;;;1.77;;
11187;SDS011;5650;52.700;7.306;2023-04-25T13:14:41;9.18;;;1.95;;
11187;SDS011;5650;52.700;7.306;2023-04-25T13:17:12;7.22;;;2.55;;
11187;SDS011;5650;52.700;7.306;2023-04-25T13:19:42;15.27;;;4.75;;
11187;SDS011;5650;52.700;7.306;2023-04-25T13:22:12;12.02;;;2.30;;
11187;SDS011;5650;52.700;7.306;2023-04-25T13:24:45;10.40;;;2.42;;
11187;SDS011;5650;52.700;7.306;2023-04-25T13:27:14;8.57;;;2.22;;
11187;SDS011;5650;52.700;7.306;2023-04-25T13:29:47;14.82;;;2.45;;
11187;SDS011;5650;52.700;7.306;2023-04-25T13:32:14;7.55;;;1.83;;
11187;SDS011;5650;52.700;7.306;2023-04-25T13:34:42;7.13;;;2.00;;
11187;SDS011;5650;52.700;7.306;2023-04-25T13:37:11;12.88;;;2.33;;
11187;SDS011;5650;52.700;7.306;2023-04-25T13:39:47;7.93;;;2.05;;
11187;SDS011;5650;52.700;7.306;2023-04-25T13:42:14;9.65;;;2.67;;
11187;SDS011;5650;52.700;7.306;2023-04-25T13:44:42;11.35;;;2.40;;
11187;SDS011;5650;52.700;7.306;2023-04-25T13:47:11;8.00;;;2.45;;
11187;SDS011;5650;52.700;7.306;2023-04-25T13:49:41;6.30;;;2.10;;
11187;SDS011;5650;52.700;7.306;2023-04-25T13:52:14;10.50;;;2.40;;
11187;SDS011;5650;52.700;7.306;2023-04-25T13:54:41;7.53;;;2.08;;
11187;SDS011;5650;52.700;7.306;2023-04-25T13:57:13;5.95;;;1.92;;
11187;SDS011;5650;52.700;7.306;2023-04-25T13:59:41;8.88;;;2.17;;
11187;SDS011;5650;52.700;7.306;2023-04-25T14:02:08;6.25;;;2.30;;
11187;SDS011;5650;52.700;7.306;2023-04-25T14:04:38;9.35;;;2.15;;
11187;SDS011;5650;52.700;7.306;2023-04-25T14:07:11;11.38;;;2.35;;
11187;SDS011;5650;52.700;7.306;2023-04-25T14:09:47;9.90;;;2.20;;
11187;SDS011;5650;52.700;7.306;2023-04-25T14:12:15;8.65;;;1.80;;
11187;SDS011;5650;52.700;7.306;2023-04-25T14:14:42;8.15;;;2.00;;
11187;SDS011;5650;52.700;7.306;2023-04-25T14:17:13;9.82;;;2.00;;
11187;SDS011;5650;52.700;7.306;2023-04-25T14:19:43;4.03;;;1.30;;
11187;SDS011;5650;52.700;7.306;2023-04-25T14:22:17;7.65;;;1.98;;
11187;SDS011;5650;52.700;7.306;2023-04-25T14:24:44;4.55;;;1.67;;
11187;SDS011;5650;52.700;7.306;2023-04-25T14:27:13;6.05;;;1.52;;
11187;SDS011;5650;52.700;7.306;2023-04-25T14:29:40;5.45;;;1.38;;
11187;SDS011;5650;52.700;7.306;2023-04-25T14:32:11;4.50;;;1.17;;
11187;SDS011;5650;52.700;7.306;2023-04-25T14:34:40;5.05;;;1.13;;
11187;SDS011;5650;52.700;7.306;2023-04-25T14:37:08;4.45;;;1.52;;
11187;SDS011;5650;52.700;7.306;2023-04-25T14:39:35;3.75;;;1.25;;
11187;SDS011;5650;52.700;7.306;2023-04-25T14:42:17;6.25;;;1.50;;
11187;SDS011;5650;52.700;7.306;2023-04-25T14:44:44;4.20;;;1.40;;
11187;SDS011;5650;52.700;7.306;2023-04-25T14:47:14;5.80;;;1.35;;
11187;SDS011;5650;52.700;7.306;2023-04-25T14:49:45;6.85;;;1.70;;
11187;SDS011;5650;52.700;7.306;2023-04-25T14:52:24;9.25;;;1.67;;
11187;SDS011;5650;52.700;7.306;2023-04-25T14:54:52;8.52;;;2.28;;
11187;SDS011;5650;52.700;7.306;2023-04-25T14:57:28;4.82;;;1.27;;
11187;SDS011;5650;52.700;7.306;2023-04-25T15:00:01;6.63;;;1.80;;
11187;SDS011;5650;52.700;7.306;2023-04-25T15:02:36;5.53;;;1.40;;
11187;SDS011;5650;52.700;7.306;2023-04-25T15:05:06;6.35;;;1.00;;
11187;SDS011;5650;52.700;7.306;2023-04-25T15:07:35;3.40;;;1.40;;
11187;SDS011;5650;52.700;7.306;2023-04-25T15:10:02;6.25;;;1.30;;
11187;SDS011;5650;52.700;7.306;2023-04-25T15:12:32;5.60;;;1.50;;